Time;durP1;ratioP1;P1;durP2;ratioP2;P2;SDS_P1;SDS_P2;PMS_P1;PMS_P2;Temp;Humidity;BMP_temperature;BMP_pressure;BME280_temperature;BME280_humidity;BME280_pressure;Samples;Min_cycle;Max_cycle;Signal;HPM_P1;HPM_P2
2022/07/23 00:00:11;;;;;;;829.57;763.67;;;15.90;99.90;;;;;;5011237;28;20446;-83
2022/07/23 00:02:40;;;;;;;820.87;755.47;;;16.50;99.90;;;;;;5017730;28;20474;-83
2022/07/23 00:05:08;;;;;;;824.07;758.57;;;16.30;99.90;;;;;;5002825;28;20836;-82
2022/07/23 00:07:34;;;;;;;816.80;750.03;;;15.90;99.90;;;;;;5006534;28;20487;-82
2022/07/23 00:10:01;;;;;;;816.70;750.80;;;16.00;99.90;;;;;;5021906;28;20519;-83
2022/07/23 00:12:29;;;;;;;816.97;750.47;;;15.90;99.90;;;;;;5022997;28;20496;-83
2022/07/23 00:14:56;;;;;;;832.57;764.37;;;16.00;99.90;;;;;;5006010;28;20475;-83
2022/07/23 00:17:24;;;;;;;836.33;767.80;;;16.00;99.90;;;;;;5006750;28;20456;-82
2022/07/23 00:19:51;;;;;;;844.37;773.90;;;16.20;99.90;;;;;;5017318;28;20944;-82
2022/07/23 00:22:18;;;;;;;838.37;769.33;;;16.60;99.90;;;;;;5005272;28;20480;-82
2022/07/23 00:24:44;;;;;;;829.70;760.20;;;16.10;99.90;;;;;;5010170;28;21074;-83
2022/07/23 00:27:11;;;;;;;836.27;764.37;;;16.10;99.90;;;;;;5021622;28;20454;-83
2022/07/23 00:29:38;;;;;;;837.87;765.97;;;16.50;99.90;;;;;;5004786;28;20971;-83
2022/07/23 00:32:05;;;;;;;840.03;766.50;;;16.60;99.90;;;;;;5008042;28;20923;-83
2022/07/23 00:34:33;;;;;;;835.80;762.70;;;16.40;99.90;;;;;;5025096;28;20478;-82
2022/07/23 00:37:00;;;;;;;836.07;762.70;;;16.10;99.90;;;;;;5008996;28;20455;-83
2022/07/23 00:39:27;;;;;;;831.70;757.60;;;15.90;99.90;;;;;;5016113;28;20448;-83
2022/07/23 00:41:54;;;;;;;818.60;745.13;;;16.20;99.90;;;;;;5024882;28;20485;-82
2022/07/23 00:44:23;;;;;;;815.13;740.40;;;15.80;99.90;;;;;;5016000;28;20463;-83
2022/07/23 00:46:53;;;;;;;813.03;737.23;;;16.40;99.90;;;;;;5006741;28;20580;-82
2022/07/23 00:49:21;;;;;;;808.93;732.97;;;16.30;99.90;;;;;;5013579;28;20536;-82
2022/07/23 00:51:50;;;;;;;811.00;735.40;;;15.80;99.90;;;;;;5024636;28;20485;-82
2022/07/23 00:54:17;;;;;;;821.40;744.80;;;16.40;99.90;;;;;;5024522;28;20459;-82
2022/07/23 00:56:45;;;;;;;839.43;762.43;;;16.30;99.90;;;;;;5024665;28;20462;-83
2022/07/23 00:59:12;;;;;;;841.07;762.37;;;15.90;99.90;;;;;;5019125;28;20456;-82
2022/07/23 01:01:39;;;;;;;840.80;761.70;;;15.90;99.90;;;;;;5005283;28;20951;-82
2022/07/23 01:04:06;;;;;;;847.97;767.40;;;16.00;99.90;;;;;;5010021;28;20954;-82
2022/07/23 01:06:37;;;;;;;852.77;772.87;;;16.20;99.90;;;;;;5024479;28;20461;-82
2022/07/23 01:09:06;;;;;;;855.20;774.13;;;16.20;99.90;;;;;;5010987;28;20476;-82
2022/07/23 01:11:34;;;;;;;861.90;778.83;;;15.70;99.90;;;;;;5005353;28;20467;-82
2022/07/23 01:14:09;;;;;;;857.70;776.07;;;16.00;99.90;;;;;;5016403;28;20453;-81
2022/07/23 01:16:36;;;;;;;848.60;769.07;;;16.10;99.90;;;;;;5023803;28;20462;-82
2022/07/23 01:19:06;;;;;;;850.33;769.57;;;16.10;99.90;;;;;;5005212;28;20797;-82
2022/07/23 01:21:35;;;;;;;846.60;765.60;;;16.10;99.90;;;;;;5004680;28;20458;-82
2022/07/23 01:24:03;;;;;;;849.73;768.83;;;15.80;99.90;;;;;;5020574;28;20458;-81
2022/07/23 01:26:32;;;;;;;855.40;772.93;;;15.90;99.90;;;;;;5023676;28;20474;-83
2022/07/23 01:28:59;;;;;;;854.63;772.13;;;15.90;99.90;;;;;;5005196;28;20482;-82
2022/07/23 01:31:26;;;;;;;851.70;771.10;;;15.90;99.90;;;;;;5010169;28;20465;-82
2022/07/23 01:33:53;;;;;;;854.00;773.33;;;15.30;99.90;;;;;;5024403;28;20458;-81
2022/07/23 01:36:19;;;;;;;859.87;778.03;;;15.80;99.90;;;;;;5019352;28;20466;-82
2022/07/23 01:38:46;;;;;;;849.23;768.43;;;15.70;99.90;;;;;;5004551;28;20524;-82
2022/07/23 01:41:15;;;;;;;850.13;770.13;;;15.60;99.90;;;;;;5007776;28;20451;-81
2022/07/23 01:43:41;;;;;;;842.07;762.70;;;15.20;99.90;;;;;;5023720;28;20477;-81
2022/07/23 01:46:08;;;;;;;847.40;766.40;;;15.00;99.90;;;;;;5021990;28;20864;-81
2022/07/23 01:48:35;;;;;;;852.67;771.80;;;15.10;99.90;;;;;;5004483;28;20454;-82
2022/07/23 01:51:02;;;;;;;853.57;772.27;;;15.40;99.90;;;;;;5004820;28;20478;-82
2022/07/23 01:53:30;;;;;;;858.70;775.70;;;14.80;99.90;;;;;;4984970;28;20478;-82
2022/07/23 01:55:57;;;;;;;852.97;769.97;;;14.90;99.90;;;;;;4984562;28;20480;-82
2022/07/23 01:58:26;;;;;;;850.57;769.67;;;14.80;99.90;;;;;;5021978;28;20959;-82
2022/07/23 02:00:53;;;;;;;851.50;771.47;;;15.00;99.90;;;;;;5017006;28;20450;-82
2022/07/23 02:03:19;;;;;;;861.23;777.70;;;15.00;99.90;;;;;;5003374;28;20477;-82
2022/07/23 02:05:46;;;;;;;870.13;788.17;;;15.00;99.90;;;;;;5009386;28;20442;-82
2022/07/23 02:08:13;;;;;;;870.10;789.07;;;15.10;99.90;;;;;;5023606;28;20453;-82
2022/07/23 02:10:39;;;;;;;866.07;784.40;;;14.60;99.90;;;;;;5021951;28;20496;-83
2022/07/23 02:13:06;;;;;;;864.40;783.90;;;15.00;99.90;;;;;;5023610;28;20480;-83
2022/07/23 02:15:35;;;;;;;869.20;788.43;;;14.50;99.90;;;;;;5020341;28;20471;-82
2022/07/23 02:18:01;;;;;;;873.10;788.50;;;14.40;99.90;;;;;;5003783;28;20457;-82
2022/07/23 02:20:28;;;;;;;871.30;781.97;;;14.80;99.90;;;;;;5004545;28;20848;-83
2022/07/23 02:22:55;;;;;;;877.10;788.27;;;14.90;99.90;;;;;;5023039;28;20483;-82
2022/07/23 02:25:22;;;;;;;864.67;783.67;;;14.80;99.90;;;;;;5022270;28;20461;-82
2022/07/23 02:27:48;;;;;;;892.97;779.67;;;14.30;99.90;;;;;;5003204;28;20841;-82
2022/07/23 02:30:15;;;;;;;865.80;782.50;;;14.70;99.90;;;;;;5010979;28;20484;-82
2022/07/23 02:32:43;;;;;;;864.87;771.53;;;14.30;99.90;;;;;;5023628;28;20479;-83
2022/07/23 02:35:10;;;;;;;864.23;778.70;;;14.60;99.90;;;;;;5016232;28;20450;-82
2022/07/23 02:37:37;;;;;;;856.37;774.10;;;14.60;99.90;;;;;;5004197;28;20450;-82
2022/07/23 02:40:04;;;;;;;864.17;781.70;;;14.50;99.90;;;;;;5007635;28;20456;-82
2022/07/23 02:42:31;;;;;;;856.87;776.93;;;14.10;99.90;;;;;;5022957;28;20473;-82
2022/07/23 02:44:58;;;;;;;855.33;776.83;;;13.90;99.90;;;;;;5020124;28;20456;-82
2022/07/23 02:47:46;;;;;;;862.37;780.13;;;14.50;99.90;;;;;;5010392;28;20457;-84
2022/07/23 02:56:39;;;;;;;849.20;769.63;;;13.90;99.90;;;;;;4957515;28;20451;-85
2022/07/23 03:03:33;;;;;;;856.43;772.13;;;13.80;99.90;;;;;;4969589;28;20477;-84
2022/07/23 03:19:22;;;;;;;849.07;768.10;;;13.70;99.90;;;;;;5000595;28;20461;-85
2022/07/23 03:22:01;;;;;;;865.97;775.57;;;14.00;99.90;;;;;;5011847;28;20466;-85
2022/07/23 03:24:53;;;;;;;864.43;782.70;;;14.20;99.90;;;;;;4991558;28;20454;-83
2022/07/23 03:27:31;;;;;;;870.67;782.53;;;13.60;99.90;;;;;;5002644;28;20453;-84
2022/07/23 03:33:16;;;;;;;872.43;790.80;;;14.20;99.90;;;;;;4995188;28;21045;-82
2022/07/23 03:36:05;;;;;;;871.47;786.47;;;13.60;99.90;;;;;;5008523;28;20520;-82
2022/07/23 03:39:03;;;;;;;873.40;788.00;;;14.10;99.90;;;;;;4999641;28;20451;-82
2022/07/23 03:41:47;;;;;;;871.80;785.43;;;13.50;99.90;;;;;;5005149;28;20442;-81
2022/07/23 03:44:47;;;;;;;883.87;792.37;;;14.00;99.90;;;;;;5015176;28;20456;-81
2022/07/23 03:54:35;;;;;;;864.53;776.07;;;14.30;99.90;;;;;;4928859;29;20542;-82
2022/07/23 03:57:16;;;;;;;852.87;773.47;;;14.10;99.90;;;;;;5007365;28;20636;-81
2022/07/23 04:03:06;;;;;;;867.20;780.67;;;13.80;99.90;;;;;;5010773;28;20980;-81
2022/07/23 04:05:45;;;;;;;854.57;771.10;;;13.90;99.90;;;;;;4986618;28;20456;-82
2022/07/23 04:08:12;;;;;;;858.13;777.63;;;13.70;99.90;;;;;;4984339;28;21191;-83
2022/07/23 04:10:40;;;;;;;869.73;781.07;;;13.60;99.90;;;;;;4984808;28;20485;-83
2022/07/23 04:13:06;;;;;;;873.57;781.03;;;13.60;99.90;;;;;;5002155;28;20490;-83
2022/07/23 04:15:33;;;;;;;857.93;777.67;;;13.70;99.90;;;;;;5001546;28;20958;-82
2022/07/23 04:18:00;;;;;;;875.40;781.17;;;14.00;99.90;;;;;;5019761;28;20990;-83
2022/07/23 04:20:26;;;;;;;869.63;776.87;;;13.70;99.90;;;;;;5017109;28;20450;-83
2022/07/23 04:22:53;;;;;;;856.30;771.43;;;13.90;99.90;;;;;;5011947;28;20483;-83
2022/07/23 04:25:20;;;;;;;853.37;764.67;;;14.20;99.90;;;;;;5003702;28;20457;-84
2022/07/23 04:27:48;;;;;;;844.60;764.97;;;13.70;99.90;;;;;;5001542;28;20449;-83
2022/07/23 04:30:15;;;;;;;854.20;769.30;;;14.20;99.90;;;;;;5001644;28;20544;-83
2022/07/23 04:32:42;;;;;;;864.97;774.60;;;14.10;99.90;;;;;;5002011;28;20476;-83
2022/07/23 04:35:09;;;;;;;847.67;769.00;;;13.80;99.90;;;;;;5019606;28;20486;-83
2022/07/23 04:37:36;;;;;;;850.80;770.10;;;14.40;99.90;;;;;;5020090;28;20823;-83
2022/07/23 04:40:03;;;;;;;857.77;774.60;;;13.80;99.90;;;;;;5004777;28;20453;-83
2022/07/23 04:42:30;;;;;;;848.70;764.07;;;13.90;99.90;;;;;;5001451;28;20574;-83
2022/07/23 04:44:58;;;;;;;842.10;761.10;;;14.40;99.90;;;;;;5015765;28;20452;-83
2022/07/23 04:47:24;;;;;;;838.87;759.80;;;14.60;99.90;;;;;;5020781;28;20449;-82
2022/07/23 04:49:51;;;;;;;852.07;771.50;;;14.60;99.90;;;;;;5006557;28;20474;-83
2022/07/23 04:52:18;;;;;;;842.07;762.53;;;14.20;99.90;;;;;;5001313;28;20557;-83
2022/07/23 04:54:45;;;;;;;851.33;766.97;;;14.50;99.90;;;;;;5000591;28;20927;-83
2022/07/23 04:57:11;;;;;;;857.17;773.20;;;14.40;99.90;;;;;;5019446;28;20449;-83
2022/07/23 04:59:38;;;;;;;845.77;764.30;;;14.70;99.90;;;;;;5009612;28;20489;-82
2022/07/23 05:02:06;;;;;;;849.67;769.63;;;15.10;99.90;;;;;;5002553;28;20518;-83
2022/07/23 05:04:33;;;;;;;844.03;762.10;;;15.20;99.90;;;;;;5002565;28;20454;-81
2022/07/23 05:07:01;;;;;;;848.23;767.40;;;15.30;99.90;;;;;;5000328;28;20458;-84
2022/07/23 05:09:27;;;;;;;849.30;766.80;;;15.20;99.90;;;;;;5003489;28;20458;-84
2022/07/23 05:11:54;;;;;;;857.20;774.63;;;15.40;99.90;;;;;;5006834;28;20484;-85
2022/07/23 05:14:21;;;;;;;846.80;766.00;;;15.50;99.90;;;;;;5022322;28;20511;-85
2022/07/23 05:16:47;;;;;;;852.90;770.87;;;15.40;99.90;;;;;;5018953;28;21007;-85
2022/07/23 05:19:16;;;;;;;851.17;769.77;;;15.60;99.90;;;;;;5022715;28;20461;-85
2022/07/23 05:21:42;;;;;;;849.73;769.13;;;15.40;99.90;;;;;;5007477;28;20470;-84
2022/07/23 05:24:09;;;;;;;847.47;767.87;;;15.40;99.90;;;;;;5014818;28;20454;-84
2022/07/23 05:26:36;;;;;;;848.00;768.13;;;15.40;99.90;;;;;;5009171;28;20457;-86
2022/07/23 05:29:03;;;;;;;850.23;768.97;;;15.80;99.90;;;;;;5017357;28;20458;-84
2022/07/23 05:31:32;;;;;;;852.23;772.00;;;15.60;99.90;;;;;;5021210;28;20478;-86
2022/07/23 05:33:59;;;;;;;836.97;758.50;;;15.50;99.90;;;;;;5015788;28;20451;-82
2022/07/23 05:36:27;;;;;;;827.70;752.53;;;16.10;99.90;;;;;;5006526;28;20532;-85
2022/07/23 05:38:54;;;;;;;823.70;750.07;;;15.80;99.90;;;;;;4997258;28;20989;-84
2022/07/23 05:41:20;;;;;;;824.50;749.37;;;16.10;99.90;;;;;;4997827;28;20981;-83
2022/07/23 05:43:47;;;;;;;819.37;746.07;;;16.30;99.90;;;;;;5011088;28;20457;-85
2022/07/23 05:46:14;;;;;;;818.03;745.60;;;16.00;99.90;;;;;;5007108;28;20458;-83
2022/07/23 05:48:41;;;;;;;829.60;756.57;;;16.00;99.90;;;;;;5001102;28;20455;-80
2022/07/23 05:51:08;;;;;;;823.80;751.60;;;16.00;99.90;;;;;;5013562;28;20532;-81
2022/07/23 05:53:37;;;;;;;824.37;751.93;;;16.60;99.90;;;;;;5016365;28;20480;-81
2022/07/23 05:56:04;;;;;;;827.30;754.00;;;16.20;99.90;;;;;;5014407;28;20453;-81
2022/07/23 05:58:31;;;;;;;825.60;753.73;;;16.70;99.90;;;;;;5009092;28;20453;-80
2022/07/23 06:00:57;;;;;;;817.93;748.93;;;16.40;99.90;;;;;;5005928;28;20458;-80
2022/07/23 06:03:25;;;;;;;820.77;752.83;;;16.80;99.90;;;;;;5006517;28;20501;-80
2022/07/23 06:05:52;;;;;;;784.43;723.40;;;16.70;99.90;;;;;;5001617;28;20463;-80
2022/07/23 06:08:18;;;;;;;789.07;730.67;;;16.70;99.90;;;;;;5001786;28;20460;-80
2022/07/23 06:10:46;;;;;;;784.63;730.03;;;16.80;99.90;;;;;;5004447;28;21025;-80
2022/07/23 06:13:13;;;;;;;766.73;715.73;;;16.80;99.90;;;;;;5006852;28;20484;-80
2022/07/23 06:15:40;;;;;;;664.13;627.10;;;17.10;99.90;;;;;;5007583;28;20479;-80
2022/07/23 06:18:06;;;;;;;701.57;664.47;;;17.20;99.90;;;;;;5007512;28;20450;-80
2022/07/23 06:20:33;;;;;;;499.30;478.40;;;17.20;99.90;;;;;;5005843;28;20480;-80
2022/07/23 06:23:00;;;;;;;266.83;256.67;;;17.50;99.90;;;;;;5003827;28;20469;-85
2022/07/23 06:25:27;;;;;;;131.27;124.90;;;17.40;99.90;;;;;;5008130;28;20454;-84
2022/07/23 06:27:55;;;;;;;62.50;57.93;;;17.40;99.90;;;;;;5009694;28;20450;-82
2022/07/23 06:30:22;;;;;;;29.33;26.40;;;17.70;99.90;;;;;;5008832;28;20919;-83
2022/07/23 06:32:49;;;;;;;40.80;37.83;;;17.60;99.90;;;;;;5009141;28;20470;-82
2022/07/23 06:35:17;;;;;;;28.33;21.53;;;17.60;99.90;;;;;;5023006;28;20450;-82
2022/07/23 06:37:44;;;;;;;40.70;37.03;;;17.60;99.90;;;;;;5020351;28;20457;-83
2022/07/23 06:40:12;;;;;;;31.97;29.03;;;17.60;99.90;;;;;;5017598;28;20452;-84
2022/07/23 06:42:40;;;;;;;29.67;26.77;;;17.60;99.90;;;;;;5005721;28;20505;-82
2022/07/23 06:45:09;;;;;;;31.20;28.20;;;17.70;99.90;;;;;;5011361;28;20467;-83
2022/07/23 06:47:36;;;;;;;48.07;44.37;;;17.60;99.90;;;;;;5002718;28;20454;-82
2022/07/23 06:50:03;;;;;;;66.53;62.13;;;17.60;99.90;;;;;;5019588;28;20455;-82
2022/07/23 06:52:30;;;;;;;185.00;177.47;;;17.70;99.90;;;;;;5013995;28;20482;-82
2022/07/23 06:54:56;;;;;;;34.03;30.73;;;18.10;99.90;;;;;;5018309;28;20460;-82
2022/07/23 06:57:25;;;;;;;28.83;26.00;;;18.20;99.90;;;;;;5014568;28;20451;-81
2022/07/23 06:59:52;;;;;;;37.03;33.73;;;18.10;99.90;;;;;;5004035;28;20450;-79
2022/07/23 07:02:20;;;;;;;58.78;54.65;;;18.20;99.90;;;;;;5015738;28;20454;-83
2022/07/23 07:04:46;;;;;;;25.33;22.73;;;18.70;99.90;;;;;;5002662;28;20190;-82
2022/07/23 07:07:13;;;;;;;27.40;18.70;;;19.00;99.90;;;;;;5019721;28;20666;-82
2022/07/23 07:09:40;;;;;;;24.47;17.67;;;19.20;99.90;;;;;;5023157;28;20452;-83
2022/07/23 07:12:08;;;;;;;29.90;17.60;;;19.30;99.90;;;;;;5023099;28;20995;-82
2022/07/23 07:14:36;;;;;;;22.80;16.33;;;19.30;99.90;;;;;;5006821;28;20460;-83
2022/07/23 07:17:02;;;;;;;28.70;18.73;;;19.40;99.90;;;;;;5004113;28;20452;-82
2022/07/23 07:19:30;;;;;;;25.43;17.37;;;19.40;99.90;;;;;;5004250;28;20509;-82
2022/07/23 07:21:57;;;;;;;32.07;19.20;;;19.60;99.90;;;;;;5008252;28;20468;-82
2022/07/23 07:24:24;;;;;;;23.07;15.63;;;19.60;99.90;;;;;;5023443;28;20451;-82
2022/07/23 07:26:51;;;;;;;29.27;18.03;;;19.60;99.90;;;;;;4986959;28;20447;-82
2022/07/23 07:29:17;;;;;;;30.63;20.00;;;19.70;99.90;;;;;;4988767;28;20470;-82
2022/07/23 07:31:46;;;;;;;26.70;16.60;;;20.00;99.90;;;;;;5023142;28;20483;-82
2022/07/23 07:34:13;;;;;;;28.40;19.10;;;19.90;99.90;;;;;;5025268;28;20449;-82
2022/07/23 07:36:41;;;;;;;40.53;21.20;;;19.80;99.90;;;;;;5008435;28;20459;-82
2022/07/23 07:39:10;;;;;;;30.93;18.90;;;20.10;99.90;;;;;;5007445;28;20461;-82
2022/07/23 07:41:37;;;;;;;41.20;20.43;;;20.60;99.90;;;;;;5023929;28;20895;-82
2022/07/23 07:44:20;;;;;;;36.23;20.60;;;20.70;99.90;;;;;;5026766;28;20460;-82
2022/07/23 07:46:58;;;;;;;35.77;23.57;;;20.40;99.90;;;;;;5007921;28;20488;-82
2022/07/23 07:49:34;;;;;;;36.57;20.67;;;20.50;99.90;;;;;;5020760;28;20475;-82
2022/07/23 07:52:02;;;;;;;34.30;21.83;;;20.90;99.90;;;;;;5025652;28;20477;-82
2022/07/23 07:54:45;;;;;;;40.50;24.63;;;20.80;99.90;;;;;;5012750;28;20517;-82
2022/07/23 07:57:14;;;;;;;30.60;22.30;;;21.00;99.90;;;;;;5006532;28;20472;-82
2022/07/23 07:59:40;;;;;;;38.72;23.25;;;21.00;97.70;;;;;;5018343;28;20486;-80
2022/07/23 08:02:08;;;;;;;30.50;20.00;;;21.40;99.00;;;;;;5021211;28;20701;-82
2022/07/23 08:04:35;;;;;;;33.87;20.90;;;21.70;93.70;;;;;;5007547;28;20447;-82
2022/07/23 08:07:08;;;;;;;26.20;16.03;;;21.60;94.80;;;;;;5001521;28;20557;-85
2022/07/23 08:10:03;;;;;;;27.50;16.73;;;21.30;92.20;;;;;;5017995;28;20454;-85
2022/07/23 08:12:56;;;;;;;23.13;15.60;;;21.40;93.00;;;;;;5006823;28;20495;-86
2022/07/23 08:18:44;;;;;;;25.57;16.70;;;21.10;89.40;;;;;;4984864;28;20895;-83
2022/07/23 08:24:31;;;;;;;20.07;14.37;;;22.10;85.40;;;;;;4980556;28;20462;-81
2022/07/23 08:26:57;;;;;;;18.63;13.00;;;21.80;82.30;;;;;;4998167;28;20477;-79
2022/07/23 08:29:24;;;;;;;18.47;11.33;;;21.60;82.30;;;;;;4997929;28;20453;-82
2022/07/23 08:31:51;;;;;;;20.03;13.77;;;21.80;79.30;;;;;;4999094;28;20472;-83
2022/07/23 08:34:17;;;;;;;27.23;16.93;;;22.30;82.60;;;;;;4999441;28;20471;-80
2022/07/23 08:36:44;;;;;;;24.60;15.23;;;22.70;80.00;;;;;;4998724;28;20456;-81
2022/07/23 08:39:11;;;;;;;26.70;15.87;;;23.00;78.90;;;;;;4999483;28;20963;-81
2022/07/23 08:41:41;;;;;;;26.43;16.33;;;23.00;76.00;;;;;;5011100;28;20924;-82
2022/07/23 08:44:09;;;;;;;24.53;16.87;;;23.00;72.90;;;;;;5018659;28;20463;-81
2022/07/23 08:46:37;;;;;;;22.43;14.80;;;23.40;69.60;;;;;;5018779;28;20450;-81
2022/07/23 08:49:05;;;;;;;23.70;16.80;;;23.70;70.60;;;;;;5021872;28;20456;-80
2022/07/23 08:51:31;;;;;;;21.10;16.00;;;23.20;71.50;;;;;;5025293;28;20453;-81
2022/07/23 08:53:59;;;;;;;26.20;15.40;;;22.80;68.90;;;;;;5024184;28;20980;-81
2022/07/23 08:56:26;;;;;;;23.17;14.40;;;23.30;67.80;;;;;;5025014;28;20449;-81
2022/07/23 08:58:55;;;;;;;22.83;14.07;;;23.40;69.30;;;;;;5008239;28;20462;-81
2022/07/23 09:01:22;;;;;;;15.67;11.90;;;23.10;70.20;;;;;;5006281;28;21006;-82
2022/07/23 09:03:49;;;;;;;18.23;12.93;;;23.20;67.90;;;;;;5006257;28;20959;-79
2022/07/23 09:06:16;;;;;;;20.37;12.43;;;23.40;68.30;;;;;;5014416;28;20453;-83
2022/07/23 09:08:44;;;;;;;18.00;12.67;;;23.50;66.00;;;;;;5027320;28;20441;-82
2022/07/23 09:11:13;;;;;;;19.37;11.97;;;23.90;63.30;;;;;;5011887;28;20450;-82
2022/07/23 09:13:42;;;;;;;21.88;13.20;;;24.00;61.90;;;;;;5007120;28;20434;-82
2022/07/23 09:16:12;;;;;;;14.93;12.17;;;23.70;59.30;;;;;;5016295;28;20226;-82
2022/07/23 09:18:43;;;;;;;16.67;11.80;;;23.90;62.00;;;;;;5011356;28;20446;-81
2022/07/23 09:21:19;;;;;;;15.80;10.87;;;24.00;62.10;;;;;;5012948;28;20445;-83
2022/07/23 09:23:49;;;;;;;14.90;9.70;;;23.90;54.00;;;;;;5024697;28;20559;-82
2022/07/23 09:26:31;;;;;;;18.53;12.23;;;23.80;55.00;;;;;;5016031;28;20429;-82
2022/07/23 09:29:01;;;;;;;16.50;11.70;;;23.80;53.90;;;;;;5008355;28;20951;-82
2022/07/23 09:31:35;;;;;;;13.50;10.50;;;24.80;49.60;;;;;;5013847;28;20458;-83
2022/07/23 09:34:09;;;;;;;19.20;12.90;;;24.60;50.20;;;;;;5026361;28;20464;-82
2022/07/23 09:36:36;;;;;;;14.67;12.10;;;25.20;50.90;;;;;;5012396;28;20453;-82
2022/07/23 09:39:04;;;;;;;14.40;11.20;;;25.80;47.20;;;;;;5003830;28;20465;-82
2022/07/23 09:41:40;;;;;;;18.80;12.60;;;26.60;41.10;;;;;;5018978;28;20485;-82
2022/07/23 09:44:15;;;;;;;16.80;11.10;;;27.10;38.90;;;;;;5014569;28;20457;-83
2022/07/23 09:46:45;;;;;;;17.30;12.20;;;26.30;39.40;;;;;;5004242;28;20456;-83
2022/07/23 09:49:17;;;;;;;14.17;10.63;;;25.80;40.20;;;;;;5010619;28;20194;-82
2022/07/23 09:51:50;;;;;;;15.27;9.80;;;25.90;40.60;;;;;;5021625;28;21281;-83
2022/07/23 09:54:33;;;;;;;17.40;10.47;;;25.80;38.00;;;;;;5012539;28;20453;-82
2022/07/23 09:57:01;;;;;;;15.07;10.60;;;26.50;37.60;;;;;;4999751;28;20465;-83
2022/07/23 09:59:30;;;;;;;14.73;9.77;;;26.10;41.90;;;;;;5005465;28;20456;-83
2022/07/23 10:02:00;;;;;;;15.47;10.03;;;25.90;35.30;;;;;;5018451;28;21008;-83
2022/07/23 10:04:28;;;;;;;15.23;9.60;;;26.20;39.70;;;;;;5010368;28;20456;-83
2022/07/23 10:06:56;;;;;;;12.70;9.60;;;26.90;33.20;;;;;;5000622;28;20461;-82
2022/07/23 10:09:27;;;;;;;22.73;10.13;;;27.20;27.00;;;;;;4998270;28;20457;-83
2022/07/23 10:12:00;;;;;;;15.80;11.05;;;27.10;30.10;;;;;;5008580;28;20451;-83
2022/07/23 10:14:27;;;;;;;16.53;8.93;;;27.30;29.40;;;;;;5016531;28;20213;-83
2022/07/23 10:16:54;;;;;;;12.57;7.47;;;27.40;25.70;;;;;;5015957;28;20511;-84
2022/07/23 10:19:23;;;;;;;10.93;6.60;;;27.60;25.80;;;;;;5016841;28;20464;-83
2022/07/23 10:21:53;;;;;;;10.70;8.03;;;28.10;24.30;;;;;;5006522;28;20488;-83
2022/07/23 10:24:30;;;;;;;11.43;6.40;;;28.00;24.60;;;;;;4996868;28;20492;-83
2022/07/23 10:27:09;;;;;;;10.20;7.23;;;28.00;22.30;;;;;;5009003;28;20464;-84
2022/07/23 10:29:46;;;;;;;11.60;7.07;;;28.90;17.90;;;;;;5017313;28;20434;-84
2022/07/23 10:32:25;;;;;;;9.40;6.10;;;29.20;16.10;;;;;;5004700;28;20474;-84
2022/07/23 10:35:00;;;;;;;9.77;6.20;;;29.70;14.50;;;;;;4999595;28;20453;-83
2022/07/23 10:37:32;;;;;;;9.90;5.80;;;29.40;15.60;;;;;;5011544;28;20436;-84
2022/07/23 10:40:13;;;;;;;8.37;5.73;;;29.30;7.40;;;;;;4993593;28;20461;-84
2022/07/23 10:42:41;;;;;;;10.77;5.77;;;29.60;10.60;;;;;;4996545;28;20500;-83
2022/07/23 10:45:27;;;;;;;14.37;5.70;;;29.60;7.00;;;;;;4996288;28;20464;-84
2022/07/23 10:47:54;;;;;;;8.30;5.30;;;29.20;7.00;;;;;;5012245;28;20431;-84
2022/07/23 10:50:24;;;;;;;7.93;4.67;;;29.50;7.70;;;;;;5017579;28;20461;-83
2022/07/23 10:53:13;;;;;;;7.80;5.50;;;29.70;5.50;;;;;;5004983;28;20447;-84
2022/07/23 10:55:45;;;;;;;7.07;4.00;;;29.80;5.80;;;;;;5013795;28;20473;-84
2022/07/23 10:58:17;;;;;;;7.33;3.50;;;29.60;4.00;;;;;;5016986;28;20454;-84
2022/07/23 11:00:44;;;;;;;6.60;3.83;;;28.60;4.80;;;;;;5004366;28;20454;-83
2022/07/23 11:03:31;;;;;;;9.13;4.87;;;28.50;5.40;;;;;;4999011;28;20487;-82
2022/07/23 11:06:00;;;;;;;13.60;4.53;;;28.40;6.10;;;;;;4999214;28;20461;-84
2022/07/23 11:08:26;;;;;;;5.50;2.70;;;27.60;5.20;;;;;;5003003;28;20430;-84
2022/07/23 11:10:56;;;;;;;8.83;4.03;;;27.50;6.10;;;;;;5001730;28;20449;-84
2022/07/23 11:13:50;;;;;;;6.17;3.50;;;28.10;9.80;;;;;;4996770;28;20473;-84
2022/07/23 11:16:20;;;;;;;6.03;3.30;;;29.20;5.80;;;;;;4996623;28;21029;-86
2022/07/23 11:19:04;;;;;;;7.27;3.53;;;30.50;2.00;;;;;;4996465;28;20462;-83
2022/07/23 11:21:50;;;;;;;10.07;3.33;;;30.00;1.00;;;;;;4995335;28;20493;-85
2022/07/23 11:24:22;;;;;;;13.07;4.07;;;28.90;1.00;;;;;;4995947;28;20450;-84
2022/07/23 11:27:01;;;;;;;26.53;6.07;;;29.70;1.00;;;;;;4995933;28;20458;-84
2022/07/23 11:29:48;;;;;;;8.50;3.80;;;28.90;5.20;;;;;;4995530;28;20453;-84
2022/07/23 11:32:29;;;;;;;5.80;3.20;;;28.60;2.20;;;;;;4995731;28;20564;-84
2022/07/23 11:34:56;;;;;;;7.17;3.10;;;28.20;3.00;;;;;;4995491;28;20496;-84
2022/07/23 11:37:34;;;;;;;6.80;3.47;;;29.20;1.00;;;;;;4995249;28;20468;-84
2022/07/23 11:40:04;;;;;;;6.03;3.23;;;29.10;1.00;;;;;;4995962;28;20461;-84
2022/07/23 11:42:31;;;;;;;8.20;3.20;;;29.40;1.90;;;;;;5000939;28;20478;-85
2022/07/23 11:44:58;;;;;;;6.50;3.10;;;29.60;1.00;;;;;;5001683;28;20446;-84
2022/07/23 11:47:26;;;;;;;6.60;3.10;;;29.50;1.00;;;;;;5000950;28;20433;-84
2022/07/23 11:49:54;;;;;;;6.47;3.27;;;28.30;1.00;;;;;;5001453;28;20460;-85
2022/07/23 11:52:22;;;;;;;6.23;3.47;;;28.90;2.40;;;;;;5000791;28;20489;-85
2022/07/23 11:54:52;;;;;;;5.60;3.10;;;28.50;1.00;;;;;;4999446;28;20465;-84
2022/07/23 11:57:20;;;;;;;5.87;3.13;;;28.30;2.10;;;;;;5000686;28;20443;-85
2022/07/23 11:59:49;;;;;;;7.93;4.17;;;28.30;2.10;;;;;;5000780;28;20476;-84
2022/07/23 12:02:16;;;;;;;9.40;3.03;;;28.40;1.00;;;;;;5000257;28;20505;-85
2022/07/23 12:04:44;;;;;;;6.23;3.40;;;28.90;1.00;;;;;;4998015;28;20458;-84
2022/07/23 12:07:28;;;;;;;6.53;3.13;;;29.30;1.00;;;;;;5001901;28;20552;-85
2022/07/23 12:09:57;;;;;;;7.10;3.03;;;29.70;1.00;;;;;;5004755;28;20460;-85
2022/07/23 12:12:25;;;;;;;7.60;3.60;;;28.90;1.00;;;;;;5002889;28;20484;-85
2022/07/23 12:14:53;;;;;;;6.67;3.63;;;28.90;1.00;;;;;;5002339;28;20859;-85
2022/07/23 12:17:20;;;;;;;7.03;3.03;;;30.10;1.00;;;;;;5002551;28;20549;-84
2022/07/23 12:19:49;;;;;;;6.50;2.50;;;31.30;1.00;;;;;;5003677;28;20486;-84
2022/07/23 12:22:16;;;;;;;7.60;2.63;;;29.90;1.00;;;;;;5001938;28;20481;-84
2022/07/23 12:24:59;;;;;;;8.40;2.60;;;28.80;1.00;;;;;;5002858;28;20523;-85
2022/07/23 12:27:27;;;;;;;6.37;3.30;;;29.60;1.00;;;;;;5004406;28;20457;-85
2022/07/23 12:29:54;;;;;;;6.37;3.07;;;30.50;1.00;;;;;;5002213;28;20453;-84
2022/07/23 12:32:23;;;;;;;6.70;3.53;;;30.80;1.00;;;;;;4999837;28;20448;-84
2022/07/23 12:34:51;;;;;;;7.03;3.60;;;29.90;1.00;;;;;;5000766;28;20461;-85
2022/07/23 12:37:29;;;;;;;9.13;3.33;;;30.80;1.00;;;;;;5000671;28;20473;-84
2022/07/23 12:39:58;;;;;;;6.40;3.30;;;32.20;1.00;;;;;;5001590;28;20443;-84
2022/07/23 12:43:47;;;;;;;;;;;;;;;;;;;;;
2022/07/23 12:46:16;;;;;;;7.10;3.57;;;31.10;1.00;;;;;;4991309;28;20482;-85
2022/07/23 12:48:52;;;;;;;7.90;3.53;;;30.50;1.00;;;;;;5015275;28;20442;-87
2022/07/23 12:51:22;;;;;;;5.93;2.70;;;31.80;1.00;;;;;;5020288;28;20553;-86
2022/07/23 12:54:23;;;;;;;6.47;2.90;;;31.10;1.00;;;;;;5024683;28;20424;-86
2022/07/23 12:56:51;;;;;;;7.60;3.10;;;31.40;1.00;;;;;;5028731;28;20433;-86
2022/07/23 12:59:21;;;;;;;7.43;3.00;;;32.10;1.00;;;;;;5009508;28;20470;-86
2022/07/23 13:01:57;;;;;;;5.40;2.67;;;32.10;1.00;;;;;;5010467;28;20981;-87
2022/07/23 13:04:33;;;;;;;5.63;2.80;;;31.50;1.00;;;;;;4998790;28;20490;-86
2022/07/23 13:10:12;;;;;;;6.00;2.30;;;31.10;1.00;;;;;;5013255;28;20456;-86
2022/07/23 13:12:42;;;;;;;6.00;2.47;;;31.80;1.00;;;;;;5020443;28;20443;-86
2022/07/23 13:15:10;;;;;;;6.23;3.07;;;32.30;1.00;;;;;;5027730;28;20432;-86
2022/07/23 13:17:37;;;;;;;5.07;2.43;;;31.20;1.00;;;;;;5020554;28;20420;-86
2022/07/23 13:20:08;;;;;;;6.53;2.80;;;30.50;1.00;;;;;;5017569;28;20444;-86
2022/07/23 13:22:34;;;;;;;4.70;2.30;;;30.60;1.00;;;;;;5011375;28;20477;-86
2022/07/23 13:25:10;;;;;;;5.33;2.70;;;30.70;1.00;;;;;;5010749;28;20509;-86
2022/07/23 13:27:46;;;;;;;6.30;2.83;;;31.90;1.00;;;;;;5020786;28;20480;-86